createdAt,value
2018-09-24T00:01:35.900Z,29.42
2018-09-24T00:04:03.774Z,28.70
2018-09-24T00:06:30.818Z,36.67
2018-09-24T00:08:57.865Z,35.17
2018-09-24T00:11:24.936Z,30.50
2018-09-24T00:13:51.963Z,34.67
2018-09-24T00:16:18.979Z,36.58
2018-09-24T00:18:46.066Z,43.78
2018-09-24T00:21:13.109Z,37.83
2018-09-24T00:23:40.156Z,36.38
2018-09-24T00:26:07.212Z,39.53
2018-09-24T00:28:34.255Z,40.33
2018-09-24T00:31:01.269Z,33.30
2018-09-24T00:33:28.357Z,41.10
2018-09-24T00:35:55.508Z,35.95
2018-09-24T00:38:22.661Z,36.35
2018-09-24T00:40:49.707Z,40.40
2018-09-24T00:43:16.870Z,39.67
2018-09-24T00:45:44.929Z,36.95
2018-09-24T00:48:11.977Z,38.42
2018-09-24T00:50:39.033Z,45.10
2018-09-24T00:53:06.072Z,37.08
2018-09-24T00:55:33.121Z,39.00
2018-09-24T00:58:00.177Z,41.30
2018-09-24T01:00:27.217Z,41.20
2018-09-24T01:02:54.265Z,40.53
2018-09-24T01:05:21.285Z,39.58
2018-09-24T01:07:48.366Z,42.72
2018-09-24T01:10:16.132Z,38.63
2018-09-24T01:12:43.177Z,43.35
2018-09-24T01:15:10.232Z,40.63
2018-09-24T01:17:37.275Z,43.22
2018-09-24T01:20:04.425Z,47.08
2018-09-24T01:22:31.475Z,49.92
2018-09-24T01:24:58.492Z,53.72
2018-09-24T01:27:25.572Z,46.33
2018-09-24T01:29:52.619Z,37.90
2018-09-24T01:32:19.674Z,41.40
2018-09-24T01:34:46.718Z,39.13
2018-09-24T01:37:13.765Z,38.42
2018-09-24T01:39:40.820Z,41.08
2018-09-24T01:42:07.972Z,35.95
2018-09-24T01:44:35.834Z,37.45
2018-09-24T01:47:02.883Z,45.50
2018-09-24T01:49:29.930Z,33.53
2018-09-24T01:51:56.979Z,31.33
2018-09-24T01:54:24.213Z,38.45
2018-09-24T01:56:51.281Z,41.60
2018-09-24T01:59:18.335Z,40.05
2018-09-24T02:01:45.382Z,52.55
2018-09-24T02:04:12.427Z,48.25
2018-09-24T02:06:40.917Z,40.40
2018-09-24T02:09:08.060Z,48.13
2018-09-24T02:11:35.109Z,49.25
2018-09-24T02:14:02.163Z,47.72
2018-09-24T02:16:29.207Z,50.17
2018-09-24T02:18:56.358Z,49.72
2018-09-24T02:21:23.407Z,43.28
2018-09-24T02:23:51.175Z,46.05
2018-09-24T02:26:18.225Z,47.80
2018-09-24T02:28:45.270Z,45.88
2018-09-24T02:31:12.318Z,48.85
2018-09-24T02:33:39.372Z,43.45
2018-09-24T02:36:06.413Z,43.78
2018-09-24T02:38:33.565Z,39.90
2018-09-24T02:41:00.615Z,42.85
2018-09-24T02:43:27.765Z,47.97
2018-09-24T02:45:54.820Z,45.55
2018-09-24T02:48:21.863Z,47.95
2018-09-24T02:50:48.913Z,41.22
2018-09-24T02:53:15.966Z,46.97
2018-09-24T02:55:43.009Z,43.85
2018-09-24T02:58:10.159Z,46.35
2018-09-24T03:00:37.208Z,46.35
2018-09-24T03:03:04.359Z,41.30
2018-09-24T03:05:31.414Z,38.88
2018-09-24T03:07:58.457Z,47.92
2018-09-24T03:10:25.509Z,30.77
2018-09-24T03:12:52.558Z,86.40
2018-09-24T03:15:19.602Z,54.72
2018-09-24T03:17:46.654Z,40.33
2018-09-24T03:20:14.109Z,36.42
2018-09-24T03:22:41.171Z,39.58
2018-09-24T03:25:09.007Z,39.63
2018-09-24T03:27:36.695Z,44.40
2018-09-24T03:30:24.977Z,42.90
2018-09-24T03:33:11.085Z,45.25
2018-09-24T03:35:38.187Z,51.65
2018-09-24T03:38:05.511Z,52.78
2018-09-24T03:40:32.588Z,48.50
2018-09-24T03:42:59.639Z,45.97
2018-09-24T03:45:26.996Z,54.90
2018-09-24T03:47:54.038Z,49.03
2018-09-24T03:50:21.088Z,50.40
2018-09-24T03:52:48.452Z,49.35
2018-09-24T03:55:15.493Z,56.53
2018-09-24T03:57:42.508Z,55.20
2018-09-24T04:00:09.997Z,48.15
2018-09-24T04:02:37.052Z,60.45
2018-09-24T04:05:10.041Z,60.45
2018-09-24T04:07:42.820Z,58.85
2018-09-24T04:10:15.872Z,60.38
2018-09-24T04:12:48.699Z,52.22
2018-09-24T04:15:21.578Z,59.63
2018-09-24T04:17:54.365Z,60.67
2018-09-24T04:20:27.244Z,51.13
2018-09-24T04:23:00.131Z,46.42
2018-09-24T04:25:32.914Z,55.22
2018-09-24T04:28:05.707Z,47.15
2018-09-24T04:30:39.197Z,54.30
2018-09-24T04:33:12.085Z,53.17
2018-09-24T04:35:44.865Z,59.47
2018-09-24T04:38:17.653Z,48.20
2018-09-24T04:40:50.609Z,50.88
2018-09-24T04:43:23.523Z,52.13
2018-09-24T04:45:56.408Z,51.90
2018-09-24T04:48:29.299Z,51.60
2018-09-24T04:51:02.078Z,51.95
2018-09-24T04:53:34.860Z,45.88
2018-09-24T04:56:07.746Z,47.20
2018-09-24T04:58:40.782Z,49.00
2018-09-24T05:01:13.823Z,43.75
2018-09-24T05:03:46.919Z,46.35
2018-09-24T05:06:19.799Z,52.72
2018-09-24T05:08:52.589Z,45.67
2018-09-24T05:11:38.805Z,52.50
2018-09-24T05:14:11.562Z,59.33
2018-09-24T05:16:44.859Z,55.47
2018-09-24T05:19:17.750Z,56.60
2018-09-24T05:21:50.629Z,60.42
2018-09-24T05:24:23.516Z,55.08
2018-09-24T05:26:56.713Z,63.53
2018-09-24T05:29:29.798Z,64.03
2018-09-24T05:32:02.581Z,63.38
2018-09-24T05:34:36.464Z,57.78
2018-09-24T05:37:10.710Z,55.25
2018-09-24T05:39:43.803Z,58.38
2018-09-24T05:42:16.990Z,53.33
2018-09-24T05:44:58.619Z,54.90
2018-09-24T05:50:18.180Z,64.75
2018-09-24T05:52:51.061Z,70.80
2018-09-24T05:55:23.915Z,70.62
2018-09-24T05:57:56.839Z,76.78
2018-09-24T06:00:30.843Z,87.32
2018-09-24T06:03:04.446Z,90.43
2018-09-24T06:05:38.187Z,80.68
2018-09-24T06:08:12.359Z,80.72
2018-09-24T06:10:45.969Z,78.87
2018-09-24T06:13:18.854Z,75.60
2018-09-24T06:15:51.746Z,75.50
2018-09-24T06:18:24.627Z,77.28
2018-09-24T06:20:57.723Z,71.32
2018-09-24T06:23:30.602Z,63.67
2018-09-24T06:26:03.391Z,55.75
2018-09-24T06:28:36.176Z,42.22
2018-09-24T06:31:08.957Z,34.65
2018-09-24T06:33:41.940Z,28.02
2018-09-24T06:36:14.730Z,17.33
2018-09-24T06:38:47.472Z,15.43
2018-09-24T06:41:20.289Z,11.20
2018-09-24T06:43:53.277Z,11.02
2018-09-24T06:46:41.752Z,8.85
2018-09-24T06:49:14.511Z,3.80
2018-09-24T06:51:47.295Z,5.65
2018-09-24T06:54:20.179Z,2.97
2018-09-24T06:56:53.167Z,4.60
2018-09-24T06:59:26.109Z,2.58
2018-09-24T07:01:59.143Z,1.17
2018-09-24T07:04:32.236Z,1.17
2018-09-24T07:07:05.221Z,0.75
2018-09-24T07:09:38.210Z,1.40
2018-09-24T07:12:10.997Z,0.60
2018-09-24T07:14:44.293Z,2.83
2018-09-24T07:17:17.284Z,1.85
2018-09-24T07:19:50.161Z,1.90
2018-09-24T07:22:36.573Z,1.20
2018-09-24T07:25:25.249Z,2.55
2018-09-24T07:27:58.042Z,1.00
2018-09-24T07:30:30.888Z,1.00
2018-09-24T07:33:03.759Z,1.12
2018-09-24T07:35:36.658Z,0.77
2018-09-24T07:38:09.544Z,1.83
2018-09-24T07:40:42.741Z,1.23
2018-09-24T07:43:28.275Z,2.67
2018-09-24T07:48:54.928Z,0.68
2018-09-24T07:51:28.072Z,1.25
2018-09-24T07:54:00.964Z,3.55
2018-09-24T07:56:33.848Z,0.85
2018-09-24T07:59:06.727Z,0.50
2018-09-24T08:01:39.606Z,1.42
2018-09-24T08:04:12.402Z,0.60
2018-09-24T08:06:45.492Z,1.62
2018-09-24T08:09:18.271Z,0.88
2018-09-24T08:11:51.362Z,0.60
2018-09-24T08:14:24.455Z,4.03
2018-09-24T08:17:10.661Z,1.87
2018-09-24T08:19:43.653Z,0.88
2018-09-24T08:22:16.521Z,1.20
2018-09-24T08:24:49.509Z,1.55
2018-09-24T08:27:22.497Z,1.08
2018-09-24T08:29:55.485Z,3.60
2018-09-24T08:32:28.165Z,3.55
2018-09-24T08:35:01.013Z,1.27
2018-09-24T08:37:33.835Z,4.60
2018-09-24T08:40:06.693Z,1.55
2018-09-24T08:42:39.710Z,2.17
2018-09-24T08:45:12.599Z,6.68
2018-09-24T08:47:45.893Z,6.37
2018-09-24T08:50:18.883Z,1.30
2018-09-24T08:52:51.869Z,1.75
2018-09-24T08:55:24.647Z,0.80
2018-09-24T08:57:57.636Z,6.28
2018-09-24T09:00:31.453Z,1.35
2018-09-24T09:03:04.397Z,0.80
2018-09-24T09:05:38.442Z,2.70
2018-09-24T09:08:11.255Z,0.82
2018-09-24T09:10:44.110Z,0.70
2018-09-24T09:13:18.430Z,2.45
2018-09-24T09:15:51.418Z,1.60
2018-09-24T09:18:37.882Z,6.72
2018-09-24T09:21:26.615Z,3.92
2018-09-24T09:23:59.576Z,1.73
2018-09-24T09:26:32.563Z,0.82
2018-09-24T09:29:05.347Z,0.60
2018-09-24T09:31:41.912Z,1.83
2018-09-24T09:34:14.589Z,1.27
2018-09-24T09:36:48.499Z,1.00
2018-09-24T09:39:21.491Z,1.50
2018-09-24T09:41:54.475Z,1.50
2018-09-24T09:44:27.361Z,0.60
2018-09-24T09:47:00.347Z,0.43
2018-09-24T09:49:33.306Z,0.62
2018-09-24T09:52:07.932Z,0.95
2018-09-24T09:54:40.751Z,1.45
2018-09-24T09:57:26.335Z,0.80
2018-09-24T09:59:59.214Z,0.70
2018-09-24T10:02:32.100Z,2.47
2018-09-24T10:05:04.780Z,0.68
2018-09-24T10:07:37.695Z,0.50
2018-09-24T10:10:10.454Z,0.62
2018-09-24T10:12:43.341Z,0.80
2018-09-24T10:15:16.220Z,0.68
2018-09-24T10:17:49.416Z,2.30
2018-09-24T10:20:22.401Z,1.37
2018-09-24T10:22:55.184Z,2.60
2018-09-24T10:25:28.070Z,2.30
2018-09-24T10:28:01.271Z,3.45
2018-09-24T10:30:34.255Z,2.42
2018-09-24T10:33:07.341Z,0.73
2018-09-24T10:35:40.328Z,3.00
2018-09-24T10:38:13.317Z,5.80
2018-09-24T10:40:46.305Z,0.65
2018-09-24T10:43:18.984Z,1.08
2018-09-24T10:45:51.879Z,2.58
2018-09-24T10:48:24.823Z,0.80
2018-09-24T10:50:57.642Z,5.78
2018-09-24T10:53:31.347Z,0.50
2018-09-24T10:56:04.335Z,0.60
2018-09-24T10:58:37.321Z,0.88
2018-09-24T11:01:10.003Z,15.23
2018-09-24T11:03:42.889Z,1.73
2018-09-24T11:06:15.877Z,0.50
2018-09-24T11:08:49.273Z,2.40
2018-09-24T11:11:23.081Z,0.40
2018-09-24T11:13:56.069Z,0.80
2018-09-24T11:16:30.631Z,1.00
2018-09-24T11:19:03.584Z,0.60
2018-09-24T11:21:36.550Z,0.62
2018-09-24T11:24:09.558Z,4.28
2018-09-24T11:26:42.753Z,0.73
2018-09-24T11:29:15.637Z,0.50
2018-09-24T11:31:48.520Z,1.00
2018-09-24T11:34:22.224Z,0.70
2018-09-24T11:36:56.342Z,0.75
2018-09-24T11:39:29.229Z,0.50
2018-09-24T11:42:02.110Z,0.60
2018-09-24T11:44:35.608Z,2.45
2018-09-24T11:47:08.602Z,0.40
2018-09-24T11:49:41.484Z,2.92
2018-09-24T11:52:14.574Z,3.72
2018-09-24T11:54:47.563Z,4.57
2018-09-24T11:57:21.266Z,0.55
2018-09-24T11:59:54.150Z,0.52
2018-09-24T12:02:27.668Z,0.93
2018-09-24T12:05:00.645Z,1.95
2018-09-24T12:07:33.730Z,0.90
2018-09-24T12:10:06.642Z,6.70
2018-09-24T12:12:39.398Z,0.50
2018-09-24T12:15:13.017Z,1.05
2018-09-24T12:17:45.994Z,0.60
2018-09-24T12:20:18.980Z,3.95
2018-09-24T12:22:52.581Z,2.78
2018-09-24T12:25:25.569Z,0.70
2018-09-24T12:27:58.765Z,6.25
2018-09-24T12:30:32.773Z,0.50
2018-09-24T12:33:07.141Z,4.22
2018-09-24T12:35:40.553Z,1.70
2018-09-24T12:38:13.956Z,0.77
2018-09-24T12:40:47.041Z,0.50
2018-09-24T12:43:22.225Z,0.45
2018-09-24T12:45:55.382Z,2.58
2018-09-24T12:48:29.216Z,0.50
2018-09-24T12:51:02.722Z,0.50
2018-09-24T12:53:36.325Z,1.87
2018-09-24T12:56:09.273Z,0.73
2018-09-24T12:58:43.628Z,0.52
2018-09-24T13:01:18.252Z,0.80
2018-09-24T13:03:52.674Z,0.57
2018-09-24T13:06:27.565Z,0.68
2018-09-24T13:09:02.643Z,0.50
2018-09-24T13:11:36.217Z,2.42
2018-09-24T13:14:10.872Z,0.45
2018-09-24T13:16:53.203Z,0.85
2018-09-24T13:19:37.699Z,0.88
2018-09-24T13:22:12.193Z,6.97
2018-09-24T13:24:45.762Z,5.68
2018-09-24T13:27:19.671Z,0.60
2018-09-24T13:29:52.965Z,2.47
2018-09-24T13:32:26.336Z,2.62
2018-09-24T13:34:59.351Z,0.50
2018-09-24T13:37:32.339Z,3.75
2018-09-24T13:40:05.435Z,0.73
2018-09-24T13:42:38.315Z,0.75
2018-09-24T13:45:11.549Z,2.70
2018-09-24T13:47:46.339Z,4.03
2018-09-24T13:50:19.327Z,3.65
2018-09-24T13:52:53.473Z,10.63
2018-09-24T13:55:26.532Z,0.93
2018-09-24T13:57:59.315Z,0.73
2018-09-24T14:00:32.718Z,0.70
2018-09-24T14:03:05.497Z,1.77
2018-09-24T14:05:38.482Z,0.95
2018-09-24T14:08:11.372Z,1.75
2018-09-24T14:10:44.363Z,0.50
2018-09-24T14:13:18.301Z,4.62
2018-09-24T14:15:52.075Z,4.00
2018-09-24T14:18:25.061Z,1.33
2018-09-24T14:21:00.024Z,1.95
2018-09-24T14:23:33.294Z,2.70
2018-09-24T14:26:06.074Z,3.60
2018-09-24T14:28:39.061Z,0.77
2018-09-24T14:31:12.049Z,2.12
2018-09-24T14:33:46.782Z,5.10
2018-09-24T14:36:20.278Z,3.12
2018-09-24T14:38:53.248Z,0.88
2018-09-24T14:41:26.257Z,0.70
2018-09-24T14:44:00.164Z,0.62
2018-09-24T14:46:33.049Z,4.20
2018-09-24T14:49:06.139Z,1.62
2018-09-24T14:51:42.974Z,1.65
2018-09-24T14:54:16.005Z,0.77
2018-09-24T14:56:49.301Z,0.80
2018-09-24T14:59:35.139Z,4.03
2018-09-24T15:02:10.433Z,1.77
2018-09-24T15:04:43.933Z,1.55
2018-09-24T15:07:17.437Z,0.70
2018-09-24T15:09:50.318Z,1.12
2018-09-24T15:12:25.442Z,2.37
2018-09-24T15:14:58.556Z,1.00
2018-09-24T15:17:34.197Z,2.78
2018-09-24T15:20:08.416Z,1.67
2018-09-24T15:22:42.086Z,1.58
2018-09-24T15:25:27.485Z,3.35
2018-09-24T15:28:14.656Z,1.17
2018-09-24T15:30:49.447Z,2.83
2018-09-24T15:33:23.874Z,3.80
2018-09-24T15:35:58.120Z,0.80
2018-09-24T15:38:33.018Z,0.80
2018-09-24T15:41:07.504Z,3.47
2018-09-24T15:43:41.830Z,1.95
2018-09-24T15:46:15.879Z,2.65
2018-09-24T15:48:51.224Z,1.20
2018-09-24T15:51:26.397Z,0.85
2018-09-24T15:54:00.372Z,0.80
2018-09-24T15:56:38.171Z,1.00
2018-09-24T15:59:12.371Z,0.65
2018-09-24T16:01:46.330Z,1.05
2018-09-24T16:04:20.819Z,0.70
2018-09-24T16:06:55.297Z,1.90
2018-09-24T16:09:28.842Z,2.53
2018-09-24T16:12:06.153Z,4.28
2018-09-24T16:14:39.428Z,11.05
2018-09-24T16:17:14.565Z,22.42
2018-09-24T16:19:50.626Z,24.75
2018-09-24T16:22:24.943Z,28.87
2018-09-24T16:24:59.471Z,23.83
2018-09-24T16:27:32.968Z,24.33
2018-09-24T16:30:07.842Z,22.55
2018-09-24T16:32:43.346Z,21.02
2018-09-24T16:35:16.598Z,17.62
2018-09-24T16:38:05.629Z,34.22
2018-09-24T16:40:49.194Z,12.90
2018-09-24T16:43:22.757Z,17.02
2018-09-24T16:45:58.513Z,13.15
2018-09-24T16:48:34.122Z,15.48
2018-09-24T16:51:09.407Z,13.35
2018-09-24T16:53:44.117Z,14.63
2018-09-24T16:56:19.710Z,11.38
2018-09-24T16:58:53.754Z,12.85
2018-09-24T17:01:30.988Z,10.77
2018-09-24T17:04:05.777Z,7.37
2018-09-24T17:06:50.320Z,13.07
2018-09-24T17:09:34.818Z,15.00
2018-09-24T17:12:23.125Z,13.82
2018-09-24T17:15:00.656Z,12.18
2018-09-24T17:17:34.854Z,12.32
2018-09-24T17:20:12.116Z,12.15
2018-09-24T17:22:45.247Z,9.65
2018-09-24T17:25:19.568Z,6.85
2018-09-24T17:28:06.367Z,7.22
2018-09-24T17:30:42.470Z,11.27
2018-09-24T17:33:16.742Z,5.78
2018-09-24T17:35:51.181Z,8.65
2018-09-24T17:38:27.241Z,7.12
2018-09-24T17:41:00.229Z,8.80
2018-09-24T17:43:37.239Z,8.88
2018-09-24T17:46:10.849Z,9.63
2018-09-24T17:48:46.367Z,9.73
2018-09-24T17:51:21.089Z,7.32
2018-09-24T17:53:55.171Z,13.02
2018-09-24T17:56:29.950Z,6.45
2018-09-24T17:59:03.845Z,8.80
2018-09-24T18:01:39.636Z,8.50
2018-09-24T18:04:15.448Z,5.80
2018-09-24T18:09:29.690Z,4.43
2018-09-24T18:12:03.179Z,2.62
2018-09-24T18:14:37.645Z,5.62
2018-09-24T18:17:11.860Z,4.03
2018-09-24T18:19:45.461Z,4.53
2018-09-24T18:22:18.967Z,3.92
2018-09-24T18:24:53.154Z,5.22
2018-09-24T18:27:26.962Z,8.38
2018-09-24T18:30:01.713Z,6.37
2018-09-24T18:32:36.650Z,4.57
2018-09-24T18:35:11.069Z,3.87
2018-09-24T18:37:46.037Z,4.47
2018-09-24T18:40:25.754Z,2.60
2018-09-24T18:43:00.446Z,4.40
2018-09-24T18:45:44.896Z,6.28
2018-09-24T18:48:32.006Z,5.78
2018-09-24T18:51:04.943Z,2.15
2018-09-24T18:53:39.012Z,3.45
2018-09-24T18:56:13.269Z,2.70
2018-09-24T18:58:48.554Z,3.40
2018-09-24T19:01:24.567Z,2.45
2018-09-24T19:03:58.822Z,3.37
2018-09-24T19:06:34.609Z,2.92
2018-09-24T19:09:23.672Z,4.72
2018-09-24T19:12:11.485Z,1.85
2018-09-24T19:14:47.570Z,9.15
2018-09-24T19:17:21.007Z,4.32
2018-09-24T19:19:55.189Z,2.53
2018-09-24T19:22:30.054Z,3.15
2018-09-24T19:25:03.450Z,5.50
2018-09-24T19:27:36.847Z,5.03
2018-09-24T19:30:10.246Z,2.35
2018-09-24T19:32:43.497Z,2.47
2018-09-24T19:35:16.221Z,3.80
2018-09-24T19:37:50.536Z,2.45
2018-09-24T19:40:26.169Z,2.33
2018-09-24T19:43:03.866Z,5.22
2018-09-24T19:45:39.232Z,2.03
2018-09-24T19:48:12.899Z,4.25
2018-09-24T19:50:48.053Z,4.97
2018-09-24T19:53:21.365Z,4.15
2018-09-24T19:55:54.352Z,3.00
2018-09-24T19:58:27.552Z,3.17
2018-09-24T20:01:01.461Z,2.45
2018-09-24T20:03:41.000Z,2.15
2018-09-24T20:06:16.354Z,1.87
2018-09-24T20:08:57.773Z,2.10
2018-09-24T20:11:33.919Z,2.03
2018-09-24T20:14:07.798Z,3.03
2018-09-24T20:16:43.845Z,1.50
2018-09-24T20:19:18.489Z,1.60
2018-09-24T20:21:55.721Z,2.57
2018-09-24T20:24:28.766Z,2.70
2018-09-24T20:27:02.235Z,2.47
2018-09-24T20:29:37.386Z,3.58
2018-09-24T20:32:12.568Z,3.80
2018-09-24T20:34:47.169Z,3.50
2018-09-24T20:37:21.586Z,1.80
2018-09-24T20:39:55.780Z,1.87
2018-09-24T20:42:30.838Z,1.60
2018-09-24T20:45:06.271Z,3.17
2018-09-24T20:47:41.728Z,1.80
2018-09-24T20:50:16.770Z,3.60
2018-09-24T20:52:50.236Z,1.70
2018-09-24T20:55:23.456Z,1.80
2018-09-24T20:57:56.753Z,2.63
2018-09-24T21:00:30.487Z,4.13
2018-09-24T21:03:04.550Z,1.57
2018-09-24T21:05:38.144Z,3.77
2018-09-24T21:08:12.495Z,1.80
2018-09-24T21:10:45.898Z,1.50
2018-09-24T21:13:18.993Z,2.53
2018-09-24T21:15:53.198Z,2.53
2018-09-24T21:18:27.325Z,2.17
2018-09-24T21:21:07.717Z,2.03
2018-09-24T21:23:40.454Z,1.73
2018-09-24T21:26:14.160Z,1.70
2018-09-24T21:28:47.148Z,1.60
2018-09-24T21:31:20.032Z,2.83
2018-09-24T21:33:53.021Z,3.83
2018-09-24T21:36:26.111Z,1.60
2018-09-24T21:38:59.208Z,1.50
2018-09-24T21:41:32.295Z,2.33
2018-09-24T21:44:05.076Z,1.70
2018-09-24T21:46:39.269Z,3.17
2018-09-24T21:49:12.082Z,2.10
2018-09-24T21:51:44.964Z,3.37
2018-09-24T21:54:17.802Z,1.63
2018-09-24T21:56:50.834Z,1.47
2018-09-24T21:59:24.647Z,1.57
2018-09-24T22:01:57.633Z,8.00
2018-09-24T22:04:30.516Z,1.50
2018-09-24T22:07:03.707Z,3.67
2018-09-24T22:09:36.598Z,1.43
2018-09-24T22:12:09.478Z,1.43
2018-09-24T22:14:42.573Z,1.40
2018-09-24T22:17:15.255Z,10.03
2018-09-24T22:19:47.935Z,1.50
2018-09-24T22:22:20.712Z,1.77
2018-09-24T22:24:53.804Z,3.10
2018-09-24T22:27:26.590Z,5.13
2018-09-24T22:29:59.860Z,1.47
2018-09-24T22:32:32.663Z,5.53
2018-09-24T22:35:05.447Z,2.83
2018-09-24T22:37:38.234Z,1.70
2018-09-24T22:40:11.118Z,3.70
2018-09-24T22:42:43.960Z,7.53
2018-09-24T22:45:16.988Z,2.67
2018-09-24T22:47:49.879Z,4.10
2018-09-24T22:50:22.760Z,2.63
2018-09-24T22:52:55.750Z,1.50
2018-09-24T22:55:28.736Z,2.40
2018-09-24T22:58:01.722Z,2.30
2018-09-24T23:00:34.513Z,2.07
2018-09-24T23:03:07.500Z,2.63
2018-09-24T23:05:40.181Z,1.60
2018-09-24T23:08:12.958Z,3.10
2018-09-24T23:10:45.946Z,1.70
2018-09-24T23:13:18.838Z,1.50
2018-09-24T23:15:51.518Z,1.90
2018-09-24T23:18:24.296Z,1.50
2018-09-24T23:20:58.206Z,1.70
2018-09-24T23:23:31.296Z,3.97
2018-09-24T23:26:04.183Z,1.87
2018-09-24T23:28:36.965Z,1.57
2018-09-24T23:31:09.952Z,1.30
2018-09-24T23:33:44.170Z,2.57
2018-09-24T23:36:17.054Z,1.73
2018-09-24T23:38:50.144Z,1.40
2018-09-24T23:41:23.101Z,1.83
2018-09-24T23:43:56.228Z,3.17
2018-09-24T23:46:29.108Z,1.50
2018-09-24T23:49:02.955Z,1.27
2018-09-24T23:51:35.806Z,3.23
2018-09-24T23:54:08.794Z,4.33
2018-09-24T23:56:41.784Z,1.30
2018-09-24T23:59:14.565Z,2.37
